Saturday, November 17, 2018, 4:06 PM GMT
Back to Local

CYYZ, Toronto Pearson Int'L. Ont.

Location: , , Canada Lat: 43.667
Local Time: 4:06 PM GMT (16:06 GMT) Lon: -79.633
Time Zone: GMT Elev: 567 ft

Show me the last for .
Show Coded

Time T Td Feel RH Dir Speed Gust Alt SLP Vis Weather Sky Remarks
2018-11-17 15:00 34 25 21 69 280° 17 25 30.14 30.17 15 OVC035 None
2018-11-17 14:00 34 27 25 74 270° 12 - 30.13 30.15 15 OVC036 None
2018-11-17 13:00 34 27 24 74 300° 15 - 30.11 30.14 15 OVC038 None
2018-11-17 12:00 36 28 27 74 300° 14 - 30.08 30.10 15 OVC045 None
2018-11-17 11:00 36 30 28 80 320° 12 - 30.05 30.07 15 SCT019 OVC041 None
2018-11-17 10:48 34 30 28 86 290° 7 - 30.04 30.07 15 FEW026 OVC042 None
2018-11-17 10:22 36 30 26 80 300° 16 - 30.03 30.06 10 -SHRASN SCT018 OVC029 Pressure rising rapidly
2018-11-17 10:10 36 32 28 86 280° 12 - 30.02 30.04 12 -SHRA FEW021 OVC029 None
2018-11-17 10:00 36 32 27 86 270° 14 - 30.01 30.03 15 FEW028 OVC041 None
2018-11-17 09:00 36 32 28 86 250° 10 - 29.98 30.00 15 FEW035 OVC042 None
2018-11-17 08:17 36 32 29 86 260° 9 - 29.97 29.99 15 SCT028 OVC035 None
2018-11-17 08:04 36 32 28 86 260° 10 - 29.97 29.99 12 -SHRA FEW033 OVC041 None
2018-11-17 08:00 36 32 28 86 260° 10 - 29.97 29.99 15 FEW031 OVC042 None
2018-11-17 07:00 36 32 28 86 260° 12 - 29.94 29.97 15 FEW024 OVC043 None
2018-11-17 06:00 36 34 28 93 240° 10 - 29.93 29.96 15 FEW024 OVC048 None
2018-11-17 05:00 36 34 28 93 230° 12 - 29.91 29.93 12 SCT026 OVC050 None
2018-11-17 04:00 36 32 28 86 230° 10 - 29.89 29.91 10 BKN026 OVC044 None
2018-11-17 03:27 34 32 26 93 210° 9 - 29.87 29.90 6 BR FEW018 OVC030 None
2018-11-17 03:00 34 32 26 93 210° 10 - 29.87 29.89 6 -DZ BR SCT015 OVC020 None
2018-11-17 02:00 34 32 26 93 230° 9 - 29.86 29.88 5 -DZ BR BKN011 OVC018 None
2018-11-17 01:00 34 30 24 86 240° 14 - 29.83 29.85 6 -DZ BR SCT012 OVC019 None
2018-11-17 00:15 34 30 25 86 240° 13 - 29.82 29.84 6 -DZ BR SCT015 OVC020 None
2018-11-17 00:00 34 30 24 86 240° 14 - 29.81 29.83 10 FEW015 OVC024 None
2018-11-16 23:40 34 30 22 86 240° 14 20 29.80 29.83 12 FEW015 OVC031 None
2018-11-16 23:00 34 30 22 86 240° 16 22 29.79 29.82 7 -SN FEW010 OVC019 None
2018-11-16 22:00 34 28 22 80 250° 14 21 29.76 29.78 12 SCT013 OVC017 None
2018-11-16 21:00 34 30 23 86 250° 17 - 29.75 29.77 10 OVC016 None
2018-11-16 20:00 36 30 23 80 250° 17 26 29.72 29.74 15 OVC019 None
2018-11-16 19:00 36 32 23 86 270° 18 26 29.70 29.72 15 OVC020 None
2018-11-16 18:00 36 34 24 93 260° 23 - 29.68 29.71 15 FEW018 SCT055 OVC085 None
2018-11-16 17:16 34 32 24 93 250° 15 - 29.69 29.71 9 FEW009 OVC022 None
2018-11-16 17:00 34 32 24 93 240° 16 - 29.69 29.71 5 -SN OVC012 None

Support USWX by starting your Amazon purchase here.